Time,TemperatureF,DewpointF,PressureIn,WindDirection,WindDirectionDegrees,WindSpeedMPH,WindSpeedGustMPH,Humidity,HourlyPrecipIn,Conditions,Clouds,dailyrainin,SoftwareType,DateUTC
2013-02-02 00:00:00,20.3,10.6,0.00,SE,135,0.0,0.0,66,0.00,,,0.00,WUHU216HW,2013-02-02 05:00:00,
2013-02-02 00:01:00,20.3,10.6,0.00,SE,135,0.0,0.0,66,0.00,,,0.00,WUHU216HW,2013-02-02 05:01:00,
2013-02-02 00:06:00,20.1,10.8,0.00,SE,135,0.0,0.0,66,0.00,,,0.00,WUHU216HW,2013-02-02 05:06:00,
2013-02-02 00:11:00,20.1,10.8,0.00,SE,135,0.0,0.0,67,0.00,,,0.00,WUHU216HW,2013-02-02 05:11:00,
2013-02-02 00:16:00,20.1,10.8,0.00,SE,135,0.0,0.0,67,0.00,,,0.00,WUHU216HW,2013-02-02 05:16:00,
2013-02-02 00:21:00,19.9,10.6,0.00,SE,135,0.0,0.0,67,0.00,,,0.00,WUHU216HW,2013-02-02 05:21:00,
2013-02-02 00:26:00,19.7,10.4,0.00,SE,135,0.0,0.0,67,0.00,,,0.00,WUHU216HW,2013-02-02 05:26:00,
2013-02-02 00:31:00,19.5,10.2,0.00,SE,135,0.0,0.0,67,0.00,,,0.00,WUHU216HW,2013-02-02 05:31:00,
2013-02-02 00:36:00,19.5,10.2,0.00,SE,135,0.0,0.0,68,0.00,,,0.00,WUHU216HW,2013-02-02 05:36:00,
2013-02-02 00:41:00,19.5,10.6,0.00,SE,135,0.0,0.0,68,0.00,,,0.00,WUHU216HW,2013-02-02 05:41:00,
2013-02-02 00:46:00,19.5,10.6,0.00,SE,135,0.0,0.0,68,0.00,,,0.00,WUHU216HW,2013-02-02 05:46:00,
2013-02-02 00:51:00,19.5,10.6,0.00,SE,135,0.0,0.0,68,0.00,,,0.00,WUHU216HW,2013-02-02 05:51:00,
2013-02-02 00:56:00,19.5,10.6,0.00,SE,135,0.0,0.0,68,0.00,,,0.00,WUHU216HW,2013-02-02 05:56:00,
2013-02-02 01:01:00,19.5,10.6,0.00,SE,135,0.0,0.0,68,0.00,,,0.00,WUHU216HW,2013-02-02 06:01:00,
2013-02-02 01:06:00,19.5,10.9,0.00,SE,135,0.0,0.0,69,0.00,,,0.00,WUHU216HW,2013-02-02 06:06:00,
2013-02-02 01:11:00,19.5,10.9,0.00,SE,135,0.0,0.0,69,0.00,,,0.00,WUHU216HW,2013-02-02 06:11:00,
2013-02-02 01:16:00,19.5,10.9,0.00,SE,135,0.0,0.0,69,0.00,,,0.00,WUHU216HW,2013-02-02 06:16:00,
2013-02-02 01:21:00,19.5,10.9,0.00,SE,135,0.0,0.0,69,0.00,,,0.00,WUHU216HW,2013-02-02 06:21:00,
2013-02-02 01:26:00,19.5,10.9,0.00,SE,135,0.0,0.0,69,0.00,,,0.00,WUHU216HW,2013-02-02 06:26:00,
2013-02-02 01:31:00,19.5,10.9,0.00,SE,135,0.0,0.0,69,0.00,,,0.00,WUHU216HW,2013-02-02 06:31:00,
2013-02-02 01:36:00,19.7,11.1,0.00,SE,135,0.0,0.0,69,0.00,,,0.00,WUHU216HW,2013-02-02 06:36:00,
2013-02-02 01:41:00,19.9,11.3,0.00,SE,135,0.0,0.0,69,0.00,,,0.00,WUHU216HW,2013-02-02 06:41:00,
2013-02-02 01:46:00,19.9,11.3,0.00,SE,135,0.0,0.0,69,0.00,,,0.00,WUHU216HW,2013-02-02 06:46:00,
2013-02-02 01:51:00,19.9,11.6,0.00,SE,135,0.0,0.0,70,0.00,,,0.00,WUHU216HW,2013-02-02 06:51:00,
2013-02-02 01:56:00,19.5,11.3,0.00,SE,135,0.0,0.0,70,0.00,,,0.00,WUHU216HW,2013-02-02 06:56:00,
2013-02-02 02:01:00,19.7,11.3,0.00,SE,135,0.0,0.0,70,0.00,,,0.00,WUHU216HW,2013-02-02 07:01:00,
2013-02-02 02:10:00,19.5,11.6,0.00,SE,135,0.0,0.0,70,0.00,,,0.00,WUHU216HW,2013-02-02 07:10:00,
2013-02-02 02:15:00,19.5,11.6,0.00,SE,135,0.0,0.0,71,0.00,,,0.00,WUHU216HW,2013-02-02 07:15:00,
2013-02-02 02:20:00,19.5,11.6,0.00,SE,135,0.0,0.0,71,0.00,,,0.00,WUHU216HW,2013-02-02 07:20:00,
2013-02-02 02:25:00,19.5,11.6,0.00,SE,135,0.0,0.0,71,0.00,,,0.00,WUHU216HW,2013-02-02 07:25:00,
2013-02-02 02:30:00,19.7,11.7,0.00,SE,135,0.0,0.0,71,0.00,,,0.00,WUHU216HW,2013-02-02 07:30:00,
2013-02-02 02:35:00,19.9,11.9,0.00,SE,135,0.0,0.0,71,0.00,,,0.00,WUHU216HW,2013-02-02 07:35:00,
2013-02-02 02:40:00,19.9,11.9,0.00,SE,135,0.0,0.0,71,0.00,,,0.00,WUHU216HW,2013-02-02 07:40:00,
2013-02-02 02:45:00,19.9,11.9,0.00,SE,135,0.0,0.0,71,0.00,,,0.00,WUHU216HW,2013-02-02 07:45:00,
2013-02-02 02:50:00,19.9,11.9,0.00,SE,135,0.0,0.0,71,0.00,,,0.00,WUHU216HW,2013-02-02 07:50:00,
2013-02-02 02:55:00,19.9,11.9,0.00,SE,135,0.0,0.0,71,0.00,,,0.00,WUHU216HW,2013-02-02 07:55:00,
2013-02-02 03:00:00,20.1,12.1,0.00,SE,135,0.0,0.0,71,0.00,,,0.00,WUHU216HW,2013-02-02 08:00:00,
2013-02-02 03:05:00,20.1,12.1,0.00,SE,135,0.0,0.0,71,0.00,,,0.00,WUHU216HW,2013-02-02 08:05:00,
2013-02-02 03:10:00,20.3,12.3,0.00,SE,135,0.0,0.0,71,0.00,,,0.00,WUHU216HW,2013-02-02 08:10:00,
2013-02-02 03:15:00,20.3,12.3,0.00,SE,135,0.0,0.0,71,0.00,,,0.00,WUHU216HW,2013-02-02 08:15:00,
2013-02-02 03:20:00,20.4,12.5,0.00,SE,135,0.0,0.0,71,0.00,,,0.00,WUHU216HW,2013-02-02 08:20:00,
2013-02-02 03:25:00,20.4,12.5,0.00,SE,135,0.0,0.0,71,0.00,,,0.00,WUHU216HW,2013-02-02 08:25:00,
2013-02-02 03:30:00,20.4,12.5,0.00,SE,135,0.0,0.0,71,0.00,,,0.00,WUHU216HW,2013-02-02 08:30:00,
2013-02-02 03:35:00,20.4,12.5,0.00,SE,135,0.0,0.0,71,0.00,,,0.00,WUHU216HW,2013-02-02 08:35:00,
2013-02-02 03:40:00,20.4,12.5,0.00,SE,135,0.0,0.0,71,0.00,,,0.00,WUHU216HW,2013-02-02 08:40:00,
2013-02-02 03:45:00,20.4,12.5,0.00,SE,135,0.0,0.0,71,0.00,,,0.00,WUHU216HW,2013-02-02 08:45:00,
2013-02-02 03:50:00,20.4,12.5,0.00,SE,135,0.0,0.0,71,0.00,,,0.00,WUHU216HW,2013-02-02 08:50:00,
2013-02-02 03:55:00,20.3,12.3,0.00,SE,135,0.0,0.0,71,0.00,,,0.00,WUHU216HW,2013-02-02 08:55:00,
2013-02-02 04:00:00,20.3,12.6,0.00,SE,135,0.0,0.0,72,0.00,,,0.00,WUHU216HW,2013-02-02 09:00:00,
2013-02-02 04:05:00,20.3,12.4,0.00,SE,135,0.0,0.0,72,0.00,,,0.00,WUHU216HW,2013-02-02 09:05:00,
2013-02-02 04:10:00,20.1,12.4,0.00,SE,135,0.0,0.0,72,0.00,,,0.00,WUHU216HW,2013-02-02 09:10:00,
2013-02-02 04:15:00,20.3,12.6,0.00,SE,135,0.0,0.0,72,0.00,,,0.00,WUHU216HW,2013-02-02 09:15:00,
2013-02-02 04:20:00,20.1,12.4,0.00,SE,135,0.0,0.0,72,0.00,,,0.00,WUHU216HW,2013-02-02 09:20:00,
2013-02-02 04:25:00,20.1,12.4,0.00,SE,135,0.0,0.0,72,0.00,,,0.00,WUHU216HW,2013-02-02 09:25:00,
2013-02-02 04:30:00,20.1,12.4,0.00,SE,135,0.0,0.0,72,0.00,,,0.00,WUHU216HW,2013-02-02 09:30:00,
2013-02-02 04:35:00,19.9,12.2,0.00,SE,135,0.0,0.0,72,0.00,,,0.00,WUHU216HW,2013-02-02 09:35:00,
2013-02-02 04:40:00,19.9,12.2,0.00,SE,135,0.0,0.0,72,0.00,,,0.00,WUHU216HW,2013-02-02 09:40:00,
2013-02-02 04:45:00,19.7,12.0,0.00,SE,135,0.0,0.0,72,0.00,,,0.00,WUHU216HW,2013-02-02 09:45:00,
2013-02-02 04:50:00,19.7,12.0,0.00,SE,135,0.0,0.0,72,0.00,,,0.00,WUHU216HW,2013-02-02 09:50:00,
2013-02-02 04:55:00,19.7,12.0,0.00,SE,135,0.0,0.0,72,0.00,,,0.00,WUHU216HW,2013-02-02 09:55:00,
2013-02-02 05:00:00,19.7,12.3,0.00,SE,135,0.0,0.0,73,0.00,,,0.00,WUHU216HW,2013-02-02 10:00:00,
2013-02-02 05:05:00,19.5,12.2,0.00,SE,135,0.0,0.0,73,0.00,,,0.00,WUHU216HW,2013-02-02 10:05:00,
2013-02-02 05:10:00,19.5,12.2,0.00,SE,135,0.0,0.0,73,0.00,,,0.00,WUHU216HW,2013-02-02 10:10:00,
2013-02-02 05:15:00,19.5,11.9,0.00,SE,135,0.0,0.0,72,0.00,,,0.00,WUHU216HW,2013-02-02 10:15:00,
2013-02-02 05:20:00,19.4,11.7,0.00,SE,135,0.0,0.0,72,0.00,,,0.00,WUHU216HW,2013-02-02 10:20:00,
2013-02-02 05:25:00,19.4,11.7,0.00,SE,135,0.0,0.0,72,0.00,,,0.00,WUHU216HW,2013-02-02 10:25:00,
2013-02-02 05:30:00,19.2,11.8,0.00,SE,135,0.0,0.0,73,0.00,,,0.00,WUHU216HW,2013-02-02 10:30:00,
2013-02-02 05:35:00,19.2,11.8,0.00,North,0,0.0,0.0,73,0.00,,,0.00,WUHU216HW,2013-02-02 10:35:00,
2013-02-02 05:40:00,19.2,11.8,0.00,SE,135,0.0,0.0,73,0.00,,,0.00,WUHU216HW,2013-02-02 10:40:00,
2013-02-02 05:45:00,19.2,11.8,0.00,SE,135,0.0,0.0,73,0.00,,,0.00,WUHU216HW,2013-02-02 10:45:00,
2013-02-02 05:50:00,19.2,11.8,0.00,SE,135,0.0,0.0,73,0.00,,,0.00,WUHU216HW,2013-02-02 10:50:00,
2013-02-02 05:55:00,19.2,11.8,0.00,SE,135,0.0,0.0,73,0.00,,,0.00,WUHU216HW,2013-02-02 10:55:00,
2013-02-02 06:00:00,19.2,11.8,0.00,SE,135,0.0,0.0,73,0.00,,,0.00,WUHU216HW,2013-02-02 11:00:00,
2013-02-02 06:10:00,19.2,11.8,0.00,SE,135,0.0,0.0,73,0.00,,,0.00,WUHU216HW,2013-02-02 11:10:00,
2013-02-02 06:15:00,19.0,11.6,0.00,SE,135,0.0,0.0,73,0.00,,,0.00,WUHU216HW,2013-02-02 11:15:00,
2013-02-02 06:20:00,18.8,11.8,0.00,SE,135,0.0,0.0,74,0.00,,,0.00,WUHU216HW,2013-02-02 11:20:00,
2013-02-02 06:25:00,18.8,11.8,0.00,SE,135,0.0,0.0,74,0.00,,,0.00,WUHU216HW,2013-02-02 11:25:00,
2013-02-02 06:30:00,18.8,11.8,0.00,SE,135,0.0,0.0,74,0.00,,,0.00,WUHU216HW,2013-02-02 11:30:00,
2013-02-02 06:35:00,18.8,11.8,0.00,SE,135,0.0,0.0,74,0.00,,,0.00,WUHU216HW,2013-02-02 11:35:00,
2013-02-02 06:40:00,18.6,11.6,0.00,SE,135,0.0,0.0,74,0.00,,,0.00,WUHU216HW,2013-02-02 11:40:00,
2013-02-02 06:45:00,18.6,11.6,0.00,SE,135,0.0,0.0,74,0.00,,,0.00,WUHU216HW,2013-02-02 11:45:00,
2013-02-02 06:50:00,18.6,11.6,0.00,SE,135,0.0,0.0,74,0.00,,,0.00,WUHU216HW,2013-02-02 11:50:00,
2013-02-02 06:55:00,18.6,11.6,0.00,SE,135,0.0,0.0,74,0.00,,,0.00,WUHU216HW,2013-02-02 11:55:00,
2013-02-02 07:00:00,18.6,11.6,0.00,SE,135,0.0,0.0,74,0.00,,,0.00,WUHU216HW,2013-02-02 12:00:00,
2013-02-02 07:05:00,18.6,11.6,0.00,SE,135,0.0,0.0,74,0.00,,,0.00,WUHU216HW,2013-02-02 12:05:00,
2013-02-02 07:10:00,18.5,11.6,0.00,SE,135,0.0,0.0,74,0.00,,,0.00,WUHU216HW,2013-02-02 12:10:00,
2013-02-02 07:15:00,18.5,11.4,0.00,SE,135,0.0,0.0,74,0.00,,,0.00,WUHU216HW,2013-02-02 12:15:00,
2013-02-02 07:20:00,18.5,11.4,0.00,SE,135,0.0,0.0,74,0.00,,,0.00,WUHU216HW,2013-02-02 12:20:00,
2013-02-02 07:25:00,18.5,11.4,0.00,SE,135,0.0,0.0,74,0.00,,,0.00,WUHU216HW,2013-02-02 12:25:00,
2013-02-02 07:30:00,18.5,11.4,0.00,SE,135,0.0,0.0,74,0.00,,,0.00,WUHU216HW,2013-02-02 12:30:00,
2013-02-02 07:35:00,18.5,11.4,0.00,SE,135,0.0,0.0,74,0.00,,,0.00,WUHU216HW,2013-02-02 12:35:00,
2013-02-02 07:40:00,18.3,11.6,0.00,SE,135,0.0,0.0,75,0.00,,,0.00,WUHU216HW,2013-02-02 12:40:00,
2013-02-02 07:45:00,18.3,11.6,0.00,SE,135,0.0,0.0,75,0.00,,,0.00,WUHU216HW,2013-02-02 12:45:00,
2013-02-02 07:50:00,18.3,11.6,0.00,SE,135,0.0,0.0,75,0.00,,,0.00,WUHU216HW,2013-02-02 12:50:00,
2013-02-02 07:55:00,18.3,11.6,0.00,SE,135,0.0,0.0,75,0.00,,,0.00,WUHU216HW,2013-02-02 12:55:00,
2013-02-02 08:00:00,18.3,11.6,0.00,SE,135,0.0,0.0,75,0.00,,,0.00,WUHU216HW,2013-02-02 13:00:00,
2013-02-02 08:05:00,18.5,11.6,0.00,SE,135,0.0,0.0,75,0.00,,,0.00,WUHU216HW,2013-02-02 13:05:00,
2013-02-02 08:10:00,18.5,11.7,0.00,SE,135,0.0,0.0,75,0.00,,,0.00,WUHU216HW,2013-02-02 13:10:00,
2013-02-02 08:15:00,18.6,11.9,0.00,SE,135,0.0,0.0,75,0.00,,,0.00,WUHU216HW,2013-02-02 13:15:00,
2013-02-02 08:20:00,18.8,12.1,0.00,SE,135,0.0,0.0,75,0.00,,,0.00,WUHU216HW,2013-02-02 13:20:00,
2013-02-02 08:25:00,19.2,12.4,0.00,SE,135,0.0,0.0,75,0.00,,,0.00,WUHU216HW,2013-02-02 13:25:00,
2013-02-02 08:30:00,19.5,13.1,0.00,SE,135,0.0,0.0,76,0.00,,,0.00,WUHU216HW,2013-02-02 13:30:00,
2013-02-02 08:35:00,19.9,13.4,0.00,SE,135,0.0,0.0,76,0.00,,,0.00,WUHU216HW,2013-02-02 13:35:00,
2013-02-02 08:40:00,20.1,13.6,0.00,SE,135,0.0,0.0,76,0.00,,,0.00,WUHU216HW,2013-02-02 13:40:00,
2013-02-02 08:45:00,20.4,14.0,0.00,SE,135,0.0,0.0,76,0.00,,,0.00,WUHU216HW,2013-02-02 13:45:00,
2013-02-02 08:50:00,20.8,14.3,0.00,SE,135,0.0,0.0,76,0.00,,,0.00,WUHU216HW,2013-02-02 13:50:00,
2013-02-02 08:55:00,21.0,14.5,0.00,SE,135,0.0,0.0,76,0.00,,,0.00,WUHU216HW,2013-02-02 13:55:00,
2013-02-02 09:00:00,21.5,15.1,0.00,SE,135,0.0,0.0,76,0.00,,,0.00,WUHU216HW,2013-02-02 14:00:00,
2013-02-02 09:05:00,21.9,15.4,0.00,SE,135,0.0,0.0,76,0.00,,,0.00,WUHU216HW,2013-02-02 14:05:00,
2013-02-02 09:10:00,22.4,15.8,0.00,SE,135,0.0,0.0,76,0.00,,,0.00,WUHU216HW,2013-02-02 14:10:00,
2013-02-02 09:15:00,22.8,16.3,0.00,SE,135,0.0,0.0,76,0.00,,,0.00,WUHU216HW,2013-02-02 14:15:00,
2013-02-02 09:20:00,23.0,16.5,0.00,ESE,113,0.0,0.0,76,0.00,,,0.00,WUHU216HW,2013-02-02 14:20:00,
2013-02-02 09:25:00,23.1,16.8,0.00,ESE,113,0.0,0.0,76,0.00,,,0.00,WUHU216HW,2013-02-02 14:25:00,
2013-02-02 09:30:00,23.9,16.7,0.00,NW,315,3.1,4.6,74,0.00,,,0.00,WUHU216HW,2013-02-02 14:30:00,
2013-02-02 09:35:00,24.6,17.1,0.00,WNW,293,0.0,4.6,73,0.00,,,0.00,WUHU216HW,2013-02-02 14:35:00,
2013-02-02 09:40:00,25.5,17.3,0.00,NW,315,3.3,3.3,71,0.00,,,0.00,WUHU216HW,2013-02-02 14:40:00,
2013-02-02 09:45:00,26.2,17.0,0.00,NW,315,1.7,6.4,68,0.00,,,0.00,WUHU216HW,2013-02-02 14:45:00,
2013-02-02 09:50:00,27.1,17.6,0.00,WNW,293,2.9,6.4,67,0.00,,,0.00,WUHU216HW,2013-02-02 14:50:00,
2013-02-02 09:55:00,27.6,17.7,0.00,NW,315,0.0,6.2,66,0.00,,,0.00,WUHU216HW,2013-02-02 14:55:00,
2013-02-02 10:00:00,28.2,17.6,0.00,WSW,248,0.0,3.1,64,0.00,,,0.00,WUHU216HW,2013-02-02 15:00:00,
2013-02-02 10:05:00,28.2,16.5,0.00,WNW,293,1.3,4.4,61,0.00,,,0.00,WUHU216HW,2013-02-02 15:05:00,
2013-02-02 10:10:00,28.4,15.5,0.00,NW,315,0.0,8.5,58,0.00,,,0.00,WUHU216HW,2013-02-02 15:10:00,
2013-02-02 10:15:00,28.2,15.2,0.00,NW,315,0.0,8.5,57,0.00,,,0.00,WUHU216HW,2013-02-02 15:15:00,
2013-02-02 10:20:00,28.5,15.4,0.00,WNW,293,1.7,3.3,57,0.00,,,0.00,WUHU216HW,2013-02-02 15:20:00,
2013-02-02 10:25:00,29.1,15.7,0.00,WNW,293,0.0,2.6,57,0.00,,,0.00,WUHU216HW,2013-02-02 15:25:00,
2013-02-02 10:30:00,29.6,16.2,0.00,WNW,293,0.0,2.9,57,0.00,,,0.00,WUHU216HW,2013-02-02 15:30:00,
2013-02-02 10:35:00,30.0,16.5,0.00,NW,315,0.0,2.9,57,0.00,,,0.00,WUHU216HW,2013-02-02 15:35:00,
2013-02-02 10:40:00,30.3,16.0,0.00,WNW,293,2.2,3.5,55,0.00,,,0.00,WUHU216HW,2013-02-02 15:40:00,
2013-02-02 10:45:00,30.5,16.3,0.00,ESE,113,0.0,3.5,55,0.00,,,0.00,WUHU216HW,2013-02-02 15:45:00,
2013-02-02 10:50:00,30.7,16.8,0.00,West,270,2.0,2.9,56,0.00,,,0.00,WUHU216HW,2013-02-02 15:50:00,
2013-02-02 10:55:00,30.7,16.8,0.00,West,270,0.0,2.0,56,0.00,,,0.00,WUHU216HW,2013-02-02 15:55:00,
2013-02-02 11:00:00,30.9,16.5,0.00,West,270,0.0,2.2,55,0.00,,,0.00,WUHU216HW,2013-02-02 16:00:00,
2013-02-02 11:05:00,31.2,16.3,0.00,WNW,293,3.1,4.0,54,0.00,,,0.00,WUHU216HW,2013-02-02 16:05:00,
2013-02-02 11:10:00,31.2,16.4,0.00,WNW,293,0.0,4.2,54,0.00,,,0.00,WUHU216HW,2013-02-02 16:10:00,
2013-02-02 11:15:00,31.2,16.9,0.00,NW,315,0.0,4.2,55,0.00,,,0.00,WUHU216HW,2013-02-02 16:15:00,
2013-02-02 11:20:00,31.6,17.2,0.00,WNW,293,0.0,0.0,55,0.00,,,0.00,WUHU216HW,2013-02-02 16:20:00,
2013-02-02 11:25:00,31.6,17.2,0.00,NW,315,0.0,0.0,55,0.00,,,0.00,WUHU216HW,2013-02-02 16:25:00,
2013-02-02 11:30:00,31.8,17.4,0.00,NW,315,0.0,0.0,55,0.00,,,0.00,WUHU216HW,2013-02-02 16:30:00,
2013-02-02 11:35:00,32.1,17.7,0.00,NW,315,0.0,0.0,55,0.00,,,0.00,WUHU216HW,2013-02-02 16:35:00,
2013-02-02 11:40:00,32.5,18.0,0.00,NW,315,0.0,0.0,55,0.00,,,0.00,WUHU216HW,2013-02-02 16:40:00,
2013-02-02 11:45:00,33.6,19.0,0.00,SSE,158,0.8,3.1,55,0.00,,,0.00,WUHU216HW,2013-02-02 16:45:00,
2013-02-02 11:50:00,34.3,19.3,0.00,SSE,158,0.0,3.1,54,0.00,,,0.00,WUHU216HW,2013-02-02 16:50:00,
2013-02-02 11:55:00,35.6,20.3,0.00,SSE,158,0.0,1.3,53,0.00,,,0.00,WUHU216HW,2013-02-02 16:55:00,
2013-02-02 12:00:00,36.1,20.3,0.00,South,180,1.5,1.5,52,0.00,,,0.00,WUHU216HW,2013-02-02 17:00:00,
2013-02-02 12:05:00,36.1,20.2,0.00,NW,315,0.0,4.4,52,0.00,,,0.00,WUHU216HW,2013-02-02 17:05:00,
2013-02-02 12:10:00,35.7,19.4,0.00,WNW,293,0.0,4.4,51,0.00,,,0.00,WUHU216HW,2013-02-02 17:10:00,
2013-02-02 12:15:00,35.4,19.1,0.00,WNW,293,0.0,1.3,51,0.00,,,0.00,WUHU216HW,2013-02-02 17:15:00,
2013-02-02 12:20:00,35.4,19.1,0.00,WNW,293,0.0,1.3,51,0.00,,,0.00,WUHU216HW,2013-02-02 17:20:00,
2013-02-02 12:25:00,35.4,19.1,0.00,WNW,293,0.0,0.0,51,0.00,,,0.00,WUHU216HW,2013-02-02 17:25:00,
2013-02-02 12:30:00,35.4,18.6,0.00,WNW,293,0.0,2.0,50,0.00,,,0.00,WUHU216HW,2013-02-02 17:30:00,
2013-02-02 12:35:00,35.4,18.6,0.00,WNW,293,0.0,2.0,50,0.00,,,0.00,WUHU216HW,2013-02-02 17:35:00,
2013-02-02 12:40:00,35.9,19.4,0.00,West,270,1.1,1.1,51,0.00,,,0.00,WUHU216HW,2013-02-02 17:40:00,
2013-02-02 12:45:00,36.1,19.3,0.00,WNW,293,0.0,1.1,50,0.00,,,0.00,WUHU216HW,2013-02-02 17:45:00,
2013-02-02 12:50:00,36.1,19.3,0.00,WNW,293,0.0,0.6,50,0.00,,,0.00,WUHU216HW,2013-02-02 17:50:00,
2013-02-02 12:55:00,36.1,19.1,0.00,ESE,113,0.0,2.2,50,0.00,,,0.00,WUHU216HW,2013-02-02 17:55:00,
2013-02-02 13:00:00,36.1,19.7,0.00,ESE,113,0.0,2.2,51,0.00,,,0.00,WUHU216HW,2013-02-02 18:00:00,
2013-02-02 13:05:00,36.5,20.5,0.00,SE,135,0.0,3.8,52,0.00,,,0.00,WUHU216HW,2013-02-02 18:05:00,
2013-02-02 13:10:00,37.0,20.5,0.00,SE,135,0.0,3.8,51,0.00,,,0.00,WUHU216HW,2013-02-02 18:10:00,
2013-02-02 13:15:00,37.2,20.7,0.00,ESE,113,0.0,3.1,51,0.00,,,0.00,WUHU216HW,2013-02-02 18:15:00,
2013-02-02 13:20:00,37.5,21.0,0.00,North,0,0.0,3.1,51,0.00,,,0.00,WUHU216HW,2013-02-02 18:20:00,
2013-02-02 13:25:00,37.7,21.2,0.00,ESE,113,0.0,0.0,51,0.00,,,0.00,WUHU216HW,2013-02-02 18:25:00,
2013-02-02 13:30:00,37.9,21.3,0.00,SE,135,0.0,0.0,51,0.00,,,0.00,WUHU216HW,2013-02-02 18:30:00,
2013-02-02 13:33:00,37.9,21.3,0.00,ESE,113,0.0,0.0,51,0.00,,,0.00,WUHU216HW,2013-02-02 18:33:00,
2013-02-02 13:39:00,37.9,21.3,0.00,ESE,113,0.0,0.0,51,0.00,,,0.00,WUHU216HW,2013-02-02 18:39:00,
2013-02-02 13:44:00,38.1,21.9,0.00,ESE,113,0.0,0.0,52,0.00,,,0.00,WUHU216HW,2013-02-02 18:44:00,
2013-02-02 13:49:00,38.4,22.1,0.00,ENE,68,0.0,0.0,52,0.00,,,0.00,WUHU216HW,2013-02-02 18:49:00,
2013-02-02 14:03:00,39.0,23.2,0.00,ENE,68,0.0,0.0,53,0.00,,,0.00,WUHU216HW,2013-02-02 19:03:00,
2013-02-02 14:10:00,39.3,23.9,0.00,SE,135,0.0,0.0,54,0.00,,,0.00,WUHU216HW,2013-02-02 19:10:00,
2013-02-02 14:17:00,39.7,24.3,0.00,SE,135,0.0,2.4,54,0.00,,,0.00,WUHU216HW,2013-02-02 19:17:00,
2013-02-02 14:23:00,40.1,25.1,0.00,SE,135,0.0,3.3,55,0.00,,,0.00,WUHU216HW,2013-02-02 19:23:00,
2013-02-02 14:30:00,40.6,26.0,0.00,WNW,293,0.0,4.2,56,0.00,,,0.00,WUHU216HW,2013-02-02 19:30:00,
2013-02-02 14:37:00,40.4,25.7,0.00,NW,315,0.0,0.0,56,0.00,,,0.00,WUHU216HW,2013-02-02 19:37:00,
2013-02-02 14:43:00,40.1,25.5,0.00,NW,315,0.0,0.0,56,0.00,,,0.00,WUHU216HW,2013-02-02 19:43:00,
2013-02-02 14:50:00,39.9,25.8,0.00,West,270,0.0,0.0,57,0.00,,,0.00,WUHU216HW,2013-02-02 19:50:00,
2013-02-02 14:57:00,39.9,25.8,0.00,West,270,0.0,0.0,57,0.00,,,0.00,WUHU216HW,2013-02-02 19:57:00,
2013-02-02 15:03:00,39.9,25.8,0.00,West,270,0.0,0.0,57,0.00,,,0.00,WUHU216HW,2013-02-02 20:03:00,
2013-02-02 15:10:00,40.1,26.2,0.00,West,270,0.0,0.0,58,0.00,,,0.00,WUHU216HW,2013-02-02 20:10:00,
2013-02-02 15:17:00,40.2,27.5,0.00,WNW,293,0.0,0.0,60,0.00,,,0.00,WUHU216HW,2013-02-02 20:17:00,
2013-02-02 15:29:00,40.8,28.4,0.00,WNW,293,0.0,0.0,61,0.00,,,0.00,WUHU216HW,2013-02-02 20:29:00,
2013-02-02 15:34:00,41.1,28.7,0.00,SE,135,0.0,2.0,61,0.00,,,0.00,WUHU216HW,2013-02-02 20:34:00,
2013-02-02 15:39:00,41.5,29.4,0.00,SW,225,0.0,2.0,62,0.00,,,0.00,WUHU216HW,2013-02-02 20:39:00,
2013-02-02 15:44:00,41.7,29.6,0.00,SSE,158,0.0,0.0,62,0.00,,,0.00,WUHU216HW,2013-02-02 20:44:00,
2013-02-02 15:49:00,41.9,29.8,0.00,SE,135,0.0,0.0,62,0.00,,,0.00,WUHU216HW,2013-02-02 20:49:00,
2013-02-02 15:54:00,41.9,29.8,0.00,NW,315,2.4,2.4,62,0.00,,,0.00,WUHU216HW,2013-02-02 20:54:00,
2013-02-02 15:59:00,41.9,29.8,0.00,NW,315,0.0,2.4,62,0.00,,,0.00,WUHU216HW,2013-02-02 20:59:00,
2013-02-02 16:04:00,41.7,29.6,0.00,South,180,0.0,2.4,62,0.00,,,0.00,WUHU216HW,2013-02-02 21:04:00,
2013-02-02 16:09:00,41.5,29.8,0.00,South,180,0.0,0.0,63,0.00,,,0.00,WUHU216HW,2013-02-02 21:09:00,
2013-02-02 16:14:00,41.5,29.8,0.00,SE,135,0.0,2.0,63,0.00,,,0.00,WUHU216HW,2013-02-02 21:14:00,
2013-02-02 16:19:00,41.3,29.6,0.00,WNW,293,0.0,2.9,63,0.00,,,0.00,WUHU216HW,2013-02-02 21:19:00,
2013-02-02 16:24:00,40.8,28.5,0.00,WNW,293,0.0,2.9,61,0.00,,,0.00,WUHU216HW,2013-02-02 21:24:00,
2013-02-02 16:29:00,40.6,28.2,0.00,SE,135,0.0,0.0,61,0.00,,,0.00,WUHU216HW,2013-02-02 21:29:00,
2013-02-02 16:34:00,40.1,27.6,0.00,SE,135,0.0,0.0,61,0.00,,,0.00,WUHU216HW,2013-02-02 21:34:00,
2013-02-02 16:39:00,39.7,27.3,0.00,SE,135,0.0,0.0,61,0.00,,,0.00,WUHU216HW,2013-02-02 21:39:00,
2013-02-02 16:44:00,39.3,26.9,0.00,SE,135,2.4,2.4,61,0.00,,,0.00,WUHU216HW,2013-02-02 21:44:00,
2013-02-02 16:49:00,39.0,26.6,0.00,SE,135,0.0,2.4,61,0.00,,,0.00,WUHU216HW,2013-02-02 21:49:00,
2013-02-02 16:54:00,38.6,26.3,0.00,SE,135,0.0,0.0,61,0.00,,,0.00,WUHU216HW,2013-02-02 21:54:00,
2013-02-02 16:59:00,38.3,26.3,0.00,SE,135,0.0,0.0,62,0.00,,,0.00,WUHU216HW,2013-02-02 21:59:00,
2013-02-02 17:04:00,37.9,26.0,0.00,SE,135,0.0,0.0,62,0.00,,,0.00,WUHU216HW,2013-02-02 22:04:00,
2013-02-02 17:09:00,37.7,25.8,0.00,SE,135,0.0,0.0,62,0.00,,,0.00,WUHU216HW,2013-02-02 22:09:00,
2013-02-02 17:14:00,37.5,25.7,0.00,SE,135,0.0,0.0,62,0.00,,,0.00,WUHU216HW,2013-02-02 22:14:00,
2013-02-02 17:19:00,37.2,25.3,0.00,SE,135,0.0,0.0,62,0.00,,,0.00,WUHU216HW,2013-02-02 22:19:00,
2013-02-02 17:24:00,37.2,25.7,0.00,SE,135,0.0,0.0,63,0.00,,,0.00,WUHU216HW,2013-02-02 22:24:00,
2013-02-02 17:29:00,37.0,25.4,0.00,SE,135,0.0,0.0,63,0.00,,,0.00,WUHU216HW,2013-02-02 22:29:00,
2013-02-02 17:34:00,36.6,25.2,0.00,SE,135,0.0,0.0,63,0.00,,,0.00,WUHU216HW,2013-02-02 22:34:00,
2013-02-02 17:39:00,36.6,25.6,0.00,SE,135,0.0,0.0,64,0.00,,,0.00,WUHU216HW,2013-02-02 22:39:00,
2013-02-02 17:44:00,36.5,25.4,0.00,SE,135,0.0,0.0,64,0.00,,,0.00,WUHU216HW,2013-02-02 22:44:00,
2013-02-02 17:49:00,36.3,25.2,0.00,SE,135,0.0,0.0,64,0.00,,,0.00,WUHU216HW,2013-02-02 22:49:00,
2013-02-02 17:54:00,36.3,25.2,0.00,SE,135,0.0,0.0,64,0.00,,,0.00,WUHU216HW,2013-02-02 22:54:00,
2013-02-02 17:59:00,36.3,25.6,0.00,SE,135,0.0,0.0,65,0.00,,,0.00,WUHU216HW,2013-02-02 22:59:00,
2013-02-02 18:04:00,36.1,25.4,0.00,SE,135,0.0,0.0,65,0.00,,,0.00,WUHU216HW,2013-02-02 23:04:00,
2013-02-02 18:09:00,36.1,25.4,0.00,SE,135,0.0,0.0,65,0.00,,,0.00,WUHU216HW,2013-02-02 23:09:00,
2013-02-02 18:14:00,35.9,25.3,0.00,SE,135,0.0,0.0,65,0.00,,,0.00,WUHU216HW,2013-02-02 23:14:00,
2013-02-02 18:19:00,35.9,25.3,0.00,SE,135,0.0,0.0,65,0.00,,,0.00,WUHU216HW,2013-02-02 23:19:00,
2013-02-02 18:24:00,35.7,25.1,0.00,SE,135,0.0,0.0,65,0.00,,,0.00,WUHU216HW,2013-02-02 23:24:00,
2013-02-02 18:29:00,35.7,25.5,0.00,SE,135,0.0,0.0,66,0.00,,,0.00,WUHU216HW,2013-02-02 23:29:00,
2013-02-02 18:34:00,35.7,25.5,0.00,SE,135,0.0,0.0,66,0.00,,,0.00,WUHU216HW,2013-02-02 23:34:00,
2013-02-02 18:39:00,35.7,25.5,0.00,SE,135,0.0,0.0,66,0.00,,,0.00,WUHU216HW,2013-02-02 23:39:00,
2013-02-02 18:44:00,35.6,25.3,0.00,SE,135,0.0,0.0,66,0.00,,,0.00,WUHU216HW,2013-02-02 23:44:00,
2013-02-02 18:49:00,35.4,25.1,0.00,SE,135,0.0,0.0,66,0.00,,,0.00,WUHU216HW,2013-02-02 23:49:00,
2013-02-02 18:54:00,35.4,25.5,0.00,SE,135,0.0,0.0,67,0.00,,,0.00,WUHU216HW,2013-02-02 23:54:00,
2013-02-02 18:59:00,35.4,25.5,0.00,SE,135,0.0,0.0,67,0.00,,,0.00,WUHU216HW,2013-02-02 23:59:00,
2013-02-02 19:04:00,35.4,25.5,0.00,SE,135,0.0,0.0,67,0.00,,,0.00,WUHU216HW,2013-02-03 00:04:00,
2013-02-02 19:09:00,35.4,25.5,0.00,SE,135,0.0,0.0,67,0.00,,,0.00,WUHU216HW,2013-02-03 00:09:00,
2013-02-02 19:14:00,35.4,25.8,0.00,SE,135,0.0,0.0,68,0.00,,,0.00,WUHU216HW,2013-02-03 00:14:00,
2013-02-02 19:19:00,35.2,25.7,0.00,SE,135,0.0,0.0,68,0.00,,,0.00,WUHU216HW,2013-02-03 00:19:00,
2013-02-02 19:24:00,35.2,25.7,0.00,SE,135,0.0,0.0,68,0.00,,,0.00,WUHU216HW,2013-02-03 00:24:00,
2013-02-02 19:29:00,35.0,25.5,0.00,SE,135,0.0,0.0,68,0.00,,,0.00,WUHU216HW,2013-02-03 00:29:00,
2013-02-02 19:34:00,34.8,25.7,0.00,SE,135,0.0,0.0,69,0.00,,,0.00,WUHU216HW,2013-02-03 00:34:00,
2013-02-02 19:39:00,34.7,25.5,0.00,SE,135,0.0,0.0,69,0.00,,,0.00,WUHU216HW,2013-02-03 00:39:00,
2013-02-02 19:44:00,34.5,25.3,0.00,SE,135,0.0,0.0,69,0.00,,,0.00,WUHU216HW,2013-02-03 00:44:00,
2013-02-02 19:49:00,34.5,25.3,0.00,SE,135,0.0,0.0,69,0.00,,,0.00,WUHU216HW,2013-02-03 00:49:00,
2013-02-02 19:54:00,34.3,25.1,0.00,SE,135,0.0,0.0,69,0.00,,,0.00,WUHU216HW,2013-02-03 00:54:00,
2013-02-02 19:59:00,34.3,25.5,0.00,SE,135,0.0,0.0,70,0.00,,,0.00,WUHU216HW,2013-02-03 00:59:00,
2013-02-02 20:04:00,34.3,25.5,0.00,SE,135,0.0,0.0,70,0.00,,,0.00,WUHU216HW,2013-02-03 01:04:00,
2013-02-02 20:09:00,34.3,25.8,0.00,SE,135,0.0,0.0,71,0.00,,,0.00,WUHU216HW,2013-02-03 01:09:00,
2013-02-02 20:14:00,34.3,25.8,0.00,SE,135,0.0,0.0,71,0.00,,,0.00,WUHU216HW,2013-02-03 01:14:00,
2013-02-02 20:19:00,34.3,25.8,0.00,SE,135,0.0,0.0,71,0.00,,,0.00,WUHU216HW,2013-02-03 01:19:00,
2013-02-02 20:24:00,34.1,25.6,0.00,SE,135,0.0,0.0,71,0.00,,,0.00,WUHU216HW,2013-02-03 01:24:00,
2013-02-02 20:29:00,34.1,25.9,0.00,SE,135,0.0,0.0,72,0.00,,,0.00,WUHU216HW,2013-02-03 01:29:00,
2013-02-02 20:34:00,33.9,25.8,0.00,SE,135,0.0,0.0,72,0.00,,,0.00,WUHU216HW,2013-02-03 01:34:00,
2013-02-02 20:39:00,33.9,25.8,0.00,SE,135,0.0,0.0,73,0.00,,,0.00,WUHU216HW,2013-02-03 01:39:00,
2013-02-02 20:44:00,33.6,25.7,0.00,SE,135,0.0,0.0,73,0.00,,,0.00,WUHU216HW,2013-02-03 01:44:00,
2013-02-02 20:49:00,33.6,25.7,0.00,SE,135,0.0,0.0,73,0.00,,,0.00,WUHU216HW,2013-02-03 01:49:00,
2013-02-02 20:54:00,33.6,26.1,0.00,SE,135,0.0,0.0,74,0.00,,,0.00,WUHU216HW,2013-02-03 01:54:00,
2013-02-02 20:59:00,33.6,26.1,0.00,SE,135,0.0,0.0,74,0.00,,,0.00,WUHU216HW,2013-02-03 01:59:00,
2013-02-02 21:04:00,33.8,26.1,0.00,SE,135,0.0,0.0,74,0.00,,,0.00,WUHU216HW,2013-02-03 02:04:00,
2013-02-02 21:09:00,33.6,26.1,0.00,SE,135,0.0,0.0,74,0.00,,,0.00,WUHU216HW,2013-02-03 02:09:00,
2013-02-02 21:14:00,33.6,26.1,0.00,SE,135,0.0,0.0,74,0.00,,,0.00,WUHU216HW,2013-02-03 02:14:00,
2013-02-02 21:19:00,33.6,26.4,0.00,SE,135,0.0,0.0,75,0.00,,,0.00,WUHU216HW,2013-02-03 02:19:00,
2013-02-02 21:24:00,33.6,26.4,0.00,SE,135,0.0,0.0,75,0.00,,,0.00,WUHU216HW,2013-02-03 02:24:00,
2013-02-02 21:29:00,33.6,26.4,0.00,SE,135,0.0,0.0,75,0.00,,,0.00,WUHU216HW,2013-02-03 02:29:00,
2013-02-02 21:34:00,33.6,26.4,0.00,SE,135,0.0,0.0,75,0.00,,,0.00,WUHU216HW,2013-02-03 02:34:00,
2013-02-02 21:39:00,33.6,26.4,0.00,SE,135,0.0,0.0,75,0.00,,,0.00,WUHU216HW,2013-02-03 02:39:00,
2013-02-02 21:44:00,33.6,26.4,0.00,SE,135,0.0,0.0,75,0.00,,,0.00,WUHU216HW,2013-02-03 02:44:00,
2013-02-02 21:49:00,33.6,26.4,0.00,SE,135,0.0,0.0,75,0.00,,,0.00,WUHU216HW,2013-02-03 02:49:00,
2013-02-02 21:54:00,33.6,26.7,0.00,SE,135,0.0,0.0,76,0.00,,,0.00,WUHU216HW,2013-02-03 02:54:00,
2013-02-02 21:59:00,33.8,26.9,0.00,SE,135,0.0,0.0,76,0.00,,,0.00,WUHU216HW,2013-02-03 02:59:00,
2013-02-02 22:04:00,33.8,26.9,0.00,SE,135,0.0,0.0,76,0.00,,,0.00,WUHU216HW,2013-02-03 03:04:00,
2013-02-02 22:09:00,33.6,26.7,0.00,SE,135,0.0,0.0,76,0.00,,,0.00,WUHU216HW,2013-02-03 03:09:00,
2013-02-02 22:14:00,33.6,26.7,0.00,SE,135,0.0,0.0,76,0.00,,,0.00,WUHU216HW,2013-02-03 03:14:00,
2013-02-02 22:19:00,33.6,26.7,0.00,North,0,0.0,0.0,76,0.00,,,0.00,WUHU216HW,2013-02-03 03:19:00,
2013-02-02 22:24:00,33.6,26.7,0.00,SE,135,0.0,0.0,76,0.00,,,0.00,WUHU216HW,2013-02-03 03:24:00,
2013-02-02 22:29:00,33.6,26.7,0.00,SE,135,0.0,0.0,76,0.00,,,0.00,WUHU216HW,2013-02-03 03:29:00,
2013-02-02 22:34:00,33.6,26.7,0.00,SE,135,0.0,0.0,76,0.00,,,0.00,WUHU216HW,2013-02-03 03:34:00,
2013-02-02 22:39:00,33.6,27.0,0.00,SE,135,0.0,0.0,77,0.00,,,0.00,WUHU216HW,2013-02-03 03:39:00,
2013-02-02 22:44:00,33.6,27.0,0.00,SE,135,0.0,0.0,77,0.00,,,0.00,WUHU216HW,2013-02-03 03:44:00,
2013-02-02 22:49:00,33.6,27.0,0.00,SE,135,0.0,0.0,77,0.00,,,0.00,WUHU216HW,2013-02-03 03:49:00,
2013-02-02 22:54:00,33.8,27.2,0.00,SE,135,0.0,0.0,77,0.00,,,0.00,WUHU216HW,2013-02-03 03:54:00,
2013-02-02 22:59:00,33.6,27.0,0.00,SE,135,0.0,0.0,77,0.00,,,0.00,WUHU216HW,2013-02-03 03:59:00,
2013-02-02 23:04:00,33.6,27.0,0.00,SE,135,0.0,0.0,77,0.00,,,0.00,WUHU216HW,2013-02-03 04:04:00,
2013-02-02 23:09:00,33.6,27.0,0.00,SE,135,0.0,0.0,77,0.00,,,0.00,WUHU216HW,2013-02-03 04:09:00,
2013-02-02 23:14:00,33.6,27.4,0.00,SE,135,0.0,0.0,78,0.00,,,0.00,WUHU216HW,2013-02-03 04:14:00,
2013-02-02 23:19:00,33.6,27.4,0.00,SE,135,0.0,0.0,78,0.00,,,0.00,WUHU216HW,2013-02-03 04:19:00,
2013-02-02 23:24:00,33.6,27.4,0.00,SE,135,0.0,0.0,78,0.00,,,0.00,WUHU216HW,2013-02-03 04:24:00,
2013-02-02 23:29:00,33.6,27.4,0.00,SE,135,0.0,0.0,78,0.00,,,0.00,WUHU216HW,2013-02-03 04:29:00,
2013-02-02 23:34:00,33.6,27.4,0.00,SE,135,0.0,0.0,78,0.00,,,0.00,WUHU216HW,2013-02-03 04:34:00,
2013-02-02 23:39:00,33.6,27.7,0.00,SE,135,0.0,0.0,79,0.00,,,0.00,WUHU216HW,2013-02-03 04:39:00,
2013-02-02 23:44:00,33.6,27.7,0.00,SE,135,0.0,0.0,79,0.00,,,0.00,WUHU216HW,2013-02-03 04:44:00,
2013-02-02 23:49:00,33.6,27.7,0.00,SE,135,0.0,0.0,79,0.00,,,0.00,WUHU216HW,2013-02-03 04:49:00,
2013-02-02 23:54:00,33.6,27.7,0.00,SE,135,0.0,0.0,79,0.00,,,0.00,WUHU216HW,2013-02-03 04:54:00,
2013-02-02 23:59:00,33.8,27.8,0.00,SE,135,0.0,0.0,79,0.00,,,0.00,WUHU216HW,2013-02-03 04:59:00,